Time,TemperatureF,DewpointF,PressureIn,WindDirection,WindDirectionDegrees,WindSpeedMPH,WindSpeedGustMPH,Humidity,HourlyPrecipIn,Conditions,Clouds,dailyrainin,SoftwareType,DateUTC
2013-03-17 00:04:00,58.4,44.0,30.04,SW,219,0.0,0.0,59,0.00,,,0.00,weatherlink.com 1.10,2013-03-17 04:04:00,
2013-03-17 00:19:00,57.4,44.0,30.04,ESE,115,0.0,1.0,61,0.00,,,0.00,weatherlink.com 1.10,2013-03-17 04:19:00,
2013-03-17 00:34:00,57.2,44.0,30.04,NW,318,0.0,0.0,61,0.00,,,0.00,weatherlink.com 1.10,2013-03-17 04:34:00,
2013-03-17 00:49:00,58.7,44.0,30.04,SW,228,0.0,4.0,58,0.00,,,0.00,weatherlink.com 1.10,2013-03-17 04:49:00,
2013-03-17 01:04:00,59.5,44.0,30.04,NE,36,0.0,2.0,56,0.00,,,0.00,weatherlink.com 1.10,2013-03-17 05:04:00,
2013-03-17 01:19:00,59.8,43.0,30.04,WSW,239,0.0,1.0,55,0.00,,,0.00,weatherlink.com 1.10,2013-03-17 05:19:00,
2013-03-17 01:50:00,59.4,44.0,30.03,SW,233,0.0,2.0,57,0.00,,,0.00,weatherlink.com 1.10,2013-03-17 05:50:00,
2013-03-17 02:05:00,59.1,43.0,30.03,SW,219,0.0,1.0,56,0.00,,,0.00,weatherlink.com 1.10,2013-03-17 06:05:00,
2013-03-17 02:20:00,59.3,43.0,30.03,WSW,249,0.0,3.0,56,0.00,,,0.00,weatherlink.com 1.10,2013-03-17 06:20:00,
2013-03-17 02:35:00,59.8,43.0,30.03,WSW,252,0.0,4.0,55,0.00,,,0.00,weatherlink.com 1.10,2013-03-17 06:35:00,
2013-03-17 02:50:00,60.1,44.0,30.03,WSW,238,0.0,4.0,55,0.00,,,0.00,weatherlink.com 1.10,2013-03-17 06:50:00,
2013-03-17 03:05:00,59.9,44.0,30.03,WSW,256,0.0,2.0,56,0.00,,,0.00,weatherlink.com 1.10,2013-03-17 07:05:00,
2013-03-17 03:35:00,59.6,44.0,30.02,SSW,211,0.0,2.0,57,0.00,,,0.00,weatherlink.com 1.10,2013-03-17 07:35:00,
2013-03-17 03:50:00,59.8,44.0,30.02,SW,231,0.0,8.0,57,0.00,,,0.00,weatherlink.com 1.10,2013-03-17 07:50:00,
2013-03-17 04:05:00,59.1,44.0,30.01,SSE,155,3.0,3.0,58,0.00,,,0.00,weatherlink.com 1.10,2013-03-17 08:05:00,
2013-03-17 04:20:00,58.7,44.0,30.01,WSW,252,0.0,1.0,59,0.00,,,0.00,weatherlink.com 1.10,2013-03-17 08:20:00,
2013-03-17 04:35:00,58.5,44.0,30.01,WSW,251,2.0,4.0,58,0.00,,,0.00,weatherlink.com 1.10,2013-03-17 08:35:00,
2013-03-17 04:50:00,57.8,43.0,30.00,SW,228,1.0,4.0,59,0.00,,,0.00,weatherlink.com 1.10,2013-03-17 08:50:00,
2013-03-17 05:05:00,57.6,44.0,30.01,WSW,243,2.0,4.0,60,0.00,,,0.00,weatherlink.com 1.10,2013-03-17 09:05:00,
2013-03-17 05:20:00,56.8,44.0,30.01,WSW,251,0.0,4.0,62,0.00,,,0.00,weatherlink.com 1.10,2013-03-17 09:20:00,
2013-03-17 05:35:00,56.1,44.0,30.02,SW,224,0.0,2.0,64,0.00,,,0.00,weatherlink.com 1.10,2013-03-17 09:35:00,
2013-03-17 05:50:00,55.6,44.0,30.02,SSW,208,0.0,1.0,66,0.00,,,0.00,weatherlink.com 1.10,2013-03-17 09:50:00,
2013-03-17 06:05:00,55.1,45.0,30.03,WSW,248,1.0,4.0,69,0.00,,,0.00,weatherlink.com 1.10,2013-03-17 10:05:00,
2013-03-17 06:20:00,54.5,46.0,30.03,WSW,249,0.0,3.0,72,0.00,,,0.00,weatherlink.com 1.10,2013-03-17 10:20:00,
2013-03-17 06:35:00,54.1,46.0,30.04,SW,224,0.0,3.0,74,0.00,,,0.00,weatherlink.com 1.10,2013-03-17 10:35:00,
2013-03-17 06:50:00,53.6,46.0,30.04,WSW,245,0.0,1.0,76,0.00,,,0.00,weatherlink.com 1.10,2013-03-17 10:50:00,
2013-03-17 07:05:00,53.4,47.0,30.04,SW,221,0.0,4.0,78,0.00,,,0.00,weatherlink.com 1.10,2013-03-17 11:05:00,
2013-03-17 07:20:00,53.3,47.0,30.04,SSW,203,2.0,3.0,78,0.00,,,0.00,weatherlink.com 1.10,2013-03-17 11:20:00,
2013-03-17 07:35:00,53.0,47.0,30.04,SW,226,2.0,2.0,79,0.00,,,0.00,weatherlink.com 1.10,2013-03-17 11:35:00,
2013-03-17 07:50:00,53.1,47.0,30.04,WSW,248,0.0,3.0,80,0.00,,,0.00,weatherlink.com 1.10,2013-03-17 11:50:00,
2013-03-17 08:05:00,52.7,47.0,30.04,WSW,237,0.0,0.0,80,0.00,,,0.00,weatherlink.com 1.10,2013-03-17 12:05:00,
2013-03-17 08:20:00,52.6,47.0,30.05,East,99,2.0,5.0,80,0.00,,,0.00,weatherlink.com 1.10,2013-03-17 12:20:00,
2013-03-17 08:35:00,52.2,46.0,30.05,ENE,77,0.0,1.0,80,0.00,,,0.00,weatherlink.com 1.10,2013-03-17 12:35:00,
2013-03-17 08:50:00,52.3,47.0,30.06,East,100,0.0,0.0,82,0.00,,,0.00,weatherlink.com 1.10,2013-03-17 12:50:00,
2013-03-17 09:05:00,52.9,48.0,30.06,East,95,0.0,0.0,82,0.00,,,0.00,weatherlink.com 1.10,2013-03-17 13:05:00,
2013-03-17 09:20:00,53.9,48.0,30.06,West,268,0.0,1.0,81,0.00,,,0.00,weatherlink.com 1.10,2013-03-17 13:20:00,
2013-03-17 09:35:00,54.6,49.0,30.06,NNW,343,0.0,1.0,80,0.00,,,0.00,weatherlink.com 1.10,2013-03-17 13:35:00,
2013-03-17 09:50:00,55.6,49.0,30.07,SW,222,0.0,0.0,79,0.00,,,0.00,weatherlink.com 1.10,2013-03-17 13:50:00,
2013-03-17 10:05:00,56.7,50.0,30.07,SW,228,0.0,0.0,78,0.00,,,0.00,weatherlink.com 1.10,2013-03-17 14:05:00,
2013-03-17 10:21:00,58.6,51.0,30.06,ENE,77,0.0,1.0,75,0.00,,,0.00,weatherlink.com 1.10,2013-03-17 14:21:00,
2013-03-17 10:36:00,60.3,51.0,30.06,WNW,290,0.0,2.0,72,0.00,,,0.00,weatherlink.com 1.10,2013-03-17 14:36:00,
2013-03-17 10:51:00,60.4,51.0,30.06,NNE,15,0.0,4.0,70,0.00,,,0.00,weatherlink.com 1.10,2013-03-17 14:51:00,
2013-03-17 11:06:00,61.3,51.0,30.06,SW,226,0.0,7.0,68,0.00,,,0.00,weatherlink.com 1.10,2013-03-17 15:06:00,
2013-03-17 11:21:00,62.7,51.0,30.06,ESE,103,0.0,9.0,66,0.00,,,0.00,weatherlink.com 1.10,2013-03-17 15:21:00,
2013-03-17 11:36:00,63.4,51.0,30.05,SW,214,2.0,6.0,64,0.00,,,0.00,weatherlink.com 1.10,2013-03-17 15:36:00,
2013-03-17 11:51:00,63.2,52.0,30.06,WNW,288,0.0,4.0,66,0.00,,,0.00,weatherlink.com 1.10,2013-03-17 15:51:00,
2013-03-17 12:06:00,63.6,51.0,30.05,West,274,0.0,6.0,64,0.00,,,0.00,weatherlink.com 1.10,2013-03-17 16:06:00,
2013-03-17 12:21:00,64.1,51.0,30.05,NE,53,0.0,3.0,62,0.00,,,0.00,weatherlink.com 1.10,2013-03-17 16:21:00,
2013-03-17 13:37:00,65.0,51.0,30.02,WNW,300,0.0,5.0,60,0.00,,,0.00,weatherlink.com 1.10,2013-03-17 17:37:00,
2013-03-17 14:06:00,65.5,50.0,30.01,WSW,246,2.0,7.0,58,0.00,,,0.00,weatherlink.com 1.10,2013-03-17 18:06:00,
2013-03-17 14:21:00,67.3,50.0,30.00,NW,314,6.0,11.0,54,0.00,,,0.00,weatherlink.com 1.10,2013-03-17 18:21:00,
2013-03-17 14:36:00,66.1,50.0,30.00,SSW,211,0.0,5.0,57,0.00,,,0.00,weatherlink.com 1.10,2013-03-17 18:36:00,
2013-03-17 14:51:00,66.3,49.0,30.00,SW,235,4.0,6.0,55,0.00,,,0.00,weatherlink.com 1.10,2013-03-17 18:51:00,
2013-03-17 15:06:00,64.8,48.0,29.99,West,270,0.0,8.0,55,0.00,,,0.00,weatherlink.com 1.10,2013-03-17 19:06:00,
2013-03-17 15:21:00,64.2,49.0,29.99,WSW,242,2.0,4.0,59,0.00,,,0.00,weatherlink.com 1.10,2013-03-17 19:21:00,
2013-03-17 15:36:00,64.3,49.0,29.99,WSW,244,1.0,3.0,59,0.00,,,0.00,weatherlink.com 1.10,2013-03-17 19:36:00,
2013-03-17 15:51:00,64.4,49.0,29.99,West,277,0.0,5.0,58,0.00,,,0.00,weatherlink.com 1.10,2013-03-17 19:51:00,
2013-03-17 16:06:00,64.4,48.0,29.99,NW,315,1.0,7.0,56,0.00,,,0.00,weatherlink.com 1.10,2013-03-17 20:06:00,
2013-03-17 16:21:00,64.2,48.0,29.99,SW,235,1.0,5.0,57,0.00,,,0.00,weatherlink.com 1.10,2013-03-17 20:21:00,
2013-03-17 16:37:00,63.5,48.0,29.98,SSW,204,0.0,4.0,58,0.00,,,0.00,weatherlink.com 1.10,2013-03-17 20:37:00,
2013-03-17 16:51:00,63.7,49.0,29.98,WSW,249,0.0,4.0,60,0.00,,,0.00,weatherlink.com 1.10,2013-03-17 20:51:00,
2013-03-17 17:06:00,63.9,48.0,29.98,SSW,201,3.0,6.0,57,0.00,,,0.00,weatherlink.com 1.10,2013-03-17 21:06:00,
2013-03-17 17:21:00,63.4,47.0,29.99,NW,306,1.0,3.0,56,0.00,,,0.00,weatherlink.com 1.10,2013-03-17 21:21:00,
2013-03-17 17:36:00,63.2,47.0,29.99,SW,226,0.0,3.0,55,0.00,,,0.00,weatherlink.com 1.10,2013-03-17 21:36:00,
2013-03-17 17:51:00,63.2,48.0,29.99,West,260,4.0,4.0,57,0.00,,,0.00,weatherlink.com 1.10,2013-03-17 21:51:00,
2013-03-17 18:06:00,62.8,47.0,29.98,South,188,0.0,2.0,57,0.00,,,0.00,weatherlink.com 1.10,2013-03-17 22:06:00,
2013-03-17 18:21:00,62.6,47.0,29.98,SSW,193,0.0,0.0,58,0.00,,,0.00,weatherlink.com 1.10,2013-03-17 22:21:00,
2013-03-17 18:36:00,62.2,47.0,29.98,NNW,347,1.0,4.0,59,0.00,,,0.00,weatherlink.com 1.10,2013-03-17 22:36:00,
2013-03-17 18:51:00,61.8,48.0,29.98,SE,132,0.0,2.0,60,0.00,,,0.00,weatherlink.com 1.10,2013-03-17 22:51:00,
2013-03-17 19:06:00,61.5,48.0,29.98,WNW,302,0.0,0.0,62,0.00,,,0.00,weatherlink.com 1.10,2013-03-17 23:06:00,
2013-03-17 19:21:00,60.8,48.0,29.99,NE,55,0.0,0.0,63,0.00,,,0.00,weatherlink.com 1.10,2013-03-17 23:21:00,
2013-03-17 19:36:00,60.4,48.0,29.99,WSW,252,0.0,1.0,64,0.00,,,0.00,weatherlink.com 1.10,2013-03-17 23:36:00,
2013-03-17 19:51:00,59.8,48.0,30.00,SSW,197,0.0,0.0,66,0.00,,,0.00,weatherlink.com 1.10,2013-03-17 23:51:00,
2013-03-17 20:06:00,59.1,48.0,30.00,WSW,255,0.0,0.0,67,0.00,,,0.00,weatherlink.com 1.10,2013-03-18 00:06:00,
2013-03-17 20:21:00,58.8,48.0,30.00,ESE,104,0.0,0.0,68,0.00,,,0.00,weatherlink.com 1.10,2013-03-18 00:21:00,
2013-03-17 20:36:00,58.7,48.0,30.01,East,93,0.0,0.0,68,0.00,,,0.00,weatherlink.com 1.10,2013-03-18 00:36:00,
2013-03-17 20:51:00,58.5,48.0,30.01,East,96,0.0,0.0,68,0.00,,,0.00,weatherlink.com 1.10,2013-03-18 00:51:00,
2013-03-17 21:06:00,57.8,48.0,30.01,ENE,57,0.0,0.0,70,0.00,,,0.00,weatherlink.com 1.10,2013-03-18 01:06:00,
2013-03-17 21:21:00,56.8,48.0,30.01,SSE,158,0.0,1.0,72,0.00,,,0.00,weatherlink.com 1.10,2013-03-18 01:21:00,
2013-03-17 21:36:00,57.1,48.0,30.02,WSW,250,1.0,1.0,71,0.00,,,0.00,weatherlink.com 1.10,2013-03-18 01:36:00,
2013-03-17 21:51:00,57.1,48.0,30.02,WNW,291,0.0,0.0,71,0.00,,,0.00,weatherlink.com 1.10,2013-03-18 01:51:00,
2013-03-17 22:06:00,56.9,48.0,30.02,SSW,197,0.0,2.0,71,0.00,,,0.00,weatherlink.com 1.10,2013-03-18 02:06:00,
2013-03-17 22:21:00,57.1,48.0,30.02,West,276,0.0,2.0,71,0.00,,,0.00,weatherlink.com 1.10,2013-03-18 02:21:00,
2013-03-17 22:36:00,57.3,48.0,30.03,WSW,256,0.0,6.0,70,0.00,,,0.00,weatherlink.com 1.10,2013-03-18 02:36:00,
2013-03-17 22:51:00,56.6,48.0,30.03,West,277,0.0,3.0,72,0.00,,,0.00,weatherlink.com 1.10,2013-03-18 02:51:00,
2013-03-17 23:06:00,56.5,48.0,30.03,SW,236,0.0,4.0,73,0.00,,,0.00,weatherlink.com 1.10,2013-03-18 03:06:00,
2013-03-17 23:21:00,56.7,48.0,30.03,WSW,239,0.0,4.0,73,0.00,,,0.00,weatherlink.com 1.10,2013-03-18 03:21:00,
2013-03-17 23:36:00,56.6,49.0,30.03,SW,221,0.0,7.0,75,0.00,,,0.00,weatherlink.com 1.10,2013-03-18 03:36:00,
2013-03-17 23:51:00,56.8,49.0,30.03,WNW,284,0.0,7.0,75,0.00,,,0.00,weatherlink.com 1.10,2013-03-18 03:51:00,